Time;durP1;ratioP1;P1;durP2;ratioP2;P2;SDS_P1;SDS_P2;PMS_P1;PMS_P2;Temp;Humidity;BMP_temperature;BMP_pressure;BME280_temperature;BME280_humidity;BME280_pressure;Samples;Min_cycle;Max_cycle;Signal;HPM_P1;HPM_P2
2022/06/05 00:01:22;;;;;;;9.93;7.10;;;17.00;99.90;;;;;;5058658;28;20590;-82
2022/06/05 00:04:08;;;;;;;10.47;6.70;;;17.00;99.90;;;;;;5060016;28;20216;-82
2022/06/05 00:06:52;;;;;;;8.90;8.00;;;16.90;99.90;;;;;;5075450;28;20175;-82
2022/06/05 00:09:50;;;;;;;9.77;7.67;;;17.00;99.90;;;;;;5074876;28;20264;-82
2022/06/05 00:12:19;;;;;;;9.53;8.40;;;16.90;99.90;;;;;;5059230;28;20257;-82
2022/06/05 00:14:45;;;;;;;11.70;8.87;;;16.90;99.90;;;;;;5058594;28;20637;-82
2022/06/05 00:17:18;;;;;;;13.80;8.70;;;16.90;99.90;;;;;;5058394;28;20231;-82
2022/06/05 00:19:50;;;;;;;16.53;9.10;;;16.90;99.90;;;;;;5058874;28;20164;-82
2022/06/05 00:22:17;;;;;;;12.60;8.67;;;16.70;99.90;;;;;;5058670;28;20188;-82
2022/06/05 00:24:43;;;;;;;9.67;8.67;;;16.90;99.90;;;;;;5057384;28;20179;-82
2022/06/05 00:27:38;;;;;;;10.17;8.83;;;16.90;99.90;;;;;;5058057;28;20284;-82
2022/06/05 00:30:17;;;;;;;10.20;8.17;;;16.80;99.90;;;;;;5056309;28;20174;-82
2022/06/05 00:33:09;;;;;;;10.00;8.77;;;16.80;99.90;;;;;;5056623;28;20673;-82
2022/06/05 00:35:50;;;;;;;10.70;9.37;;;16.80;99.90;;;;;;5055660;28;20269;-82
2022/06/05 00:38:47;;;;;;;13.03;9.50;;;16.80;99.90;;;;;;5055235;28;20691;-82
2022/06/05 00:41:43;;;;;;;12.23;9.50;;;16.70;99.90;;;;;;5028872;28;20196;-82
2022/06/05 00:44:13;;;;;;;10.83;9.00;;;16.80;99.90;;;;;;5053850;28;20170;-82
2022/06/05 00:46:41;;;;;;;11.83;9.30;;;16.70;99.90;;;;;;5053815;28;20181;-82
2022/06/05 00:49:07;;;;;;;10.37;9.30;;;16.70;99.90;;;;;;5061443;28;20256;-82
2022/06/05 00:51:34;;;;;;;13.60;10.07;;;16.70;99.90;;;;;;5060931;28;20177;-82
2022/06/05 00:53:59;;;;;;;13.37;9.50;;;16.60;99.90;;;;;;5062372;28;20174;-82
2022/06/05 00:56:25;;;;;;;11.53;9.77;;;;;;;;;;5059337;28;20199;-82
2022/06/05 00:58:52;;;;;;;12.67;10.33;;;16.60;99.90;;;;;;5074681;28;20262;-82
2022/06/05 01:01:18;;;;;;;10.77;9.57;;;16.60;99.90;;;;;;5074613;28;20181;-82
2022/06/05 01:03:44;;;;;;;10.47;8.57;;;16.50;99.90;;;;;;5058992;28;20223;-82
2022/06/05 01:06:10;;;;;;;10.30;8.63;;;;;;;;;;5058811;28;20186;-82
2022/06/05 01:08:36;;;;;;;10.13;9.10;;;16.40;99.90;;;;;;5074519;28;20209;-82
2022/06/05 01:11:11;;;;;;;9.50;8.40;;;16.50;99.90;;;;;;5059995;28;20315;-82
2022/06/05 01:13:55;;;;;;;9.27;8.17;;;16.40;99.90;;;;;;5075141;28;20634;-82
2022/06/05 01:16:27;;;;;;;12.50;8.33;;;16.40;99.90;;;;;;5074868;28;20184;-82
2022/06/05 01:19:14;;;;;;;10.53;8.73;;;16.40;99.90;;;;;;5058179;28;20209;-82
2022/06/05 01:21:52;;;;;;;15.53;8.17;;;16.40;99.90;;;;;;5075609;28;20176;-83
2022/06/05 01:24:51;;;;;;;12.83;8.73;;;16.30;99.90;;;;;;5060412;28;20177;-82
2022/06/05 01:27:22;;;;;;;9.63;8.47;;;16.30;99.90;;;;;;5075586;28;20197;-82
2022/06/05 01:30:16;;;;;;;11.90;9.37;;;16.30;99.90;;;;;;5059134;28;20628;-82
2022/06/05 01:32:59;;;;;;;11.77;9.33;;;16.30;99.90;;;;;;5055026;28;20190;-82
2022/06/05 01:35:34;;;;;;;12.33;9.10;;;16.20;99.90;;;;;;5062524;28;20184;-82
2022/06/05 01:38:11;;;;;;;9.70;8.70;;;16.30;99.90;;;;;;5074548;28;20228;-82
2022/06/05 01:40:47;;;;;;;11.80;8.80;;;16.20;99.90;;;;;;5057299;28;20177;-82
2022/06/05 01:43:16;;;;;;;10.63;8.53;;;16.20;99.90;;;;;;5058667;28;20173;-82
2022/06/05 01:45:44;;;;;;;10.13;8.93;;;16.20;99.90;;;;;;5057418;28;20181;-82
2022/06/05 01:48:25;;;;;;;10.93;9.10;;;16.10;99.90;;;;;;5073906;28;20212;-82
2022/06/05 01:50:56;;;;;;;14.17;9.27;;;16.20;99.90;;;;;;5058463;28;20213;-82
2022/06/05 01:53:34;;;;;;;14.73;9.20;;;16.10;99.90;;;;;;5057905;28;20207;-82
2022/06/05 01:56:06;;;;;;;9.43;8.53;;;16.10;99.90;;;;;;5058412;28;20170;-82
2022/06/05 01:58:41;;;;;;;16.30;10.20;;;16.00;99.90;;;;;;5058922;28;20208;-83
2022/06/05 02:01:15;;;;;;;10.60;9.23;;;16.10;99.90;;;;;;5056763;28;20717;-83
2022/06/05 02:03:46;;;;;;;11.70;9.57;;;16.10;99.90;;;;;;5059381;28;20286;-83
2022/06/05 02:06:17;;;;;;;14.40;10.23;;;16.10;99.90;;;;;;5059216;28;20263;-83
2022/06/05 02:08:58;;;;;;;13.83;10.43;;;16.00;99.90;;;;;;5057558;28;20217;-83
2022/06/05 02:11:27;;;;;;;12.00;10.27;;;16.10;99.90;;;;;;5059134;28;20162;-83
2022/06/05 02:14:02;;;;;;;12.73;10.17;;;16.20;99.90;;;;;;5058046;28;20299;-83
2022/06/05 02:16:30;;;;;;;12.00;9.97;;;16.00;99.90;;;;;;5058553;28;20177;-83
2022/06/05 02:18:59;;;;;;;13.10;10.40;;;16.00;99.90;;;;;;5060403;28;20209;-83
2022/06/05 02:21:25;;;;;;;11.23;9.90;;;15.80;99.90;;;;;;5059744;28;20173;-83
2022/06/05 02:23:51;;;;;;;12.47;10.07;;;15.90;99.90;;;;;;5059444;28;20197;-83
2022/06/05 02:26:17;;;;;;;11.60;10.23;;;;;;;;;;5073521;28;20178;-83
2022/06/05 02:28:43;;;;;;;12.57;10.07;;;;;;;;;;5058482;28;20209;-82
2022/06/05 02:31:40;;;;;;;13.50;10.57;;;15.90;99.90;;;;;;5056897;28;20633;-83
2022/06/05 02:34:31;;;;;;;11.93;10.10;;;15.90;99.90;;;;;;5056493;28;20208;-82
2022/06/05 02:37:22;;;;;;;14.17;11.07;;;15.90;99.90;;;;;;5057490;28;20284;-83
2022/06/05 02:40:11;;;;;;;16.60;10.77;;;16.00;99.90;;;;;;5057438;28;20179;-82
2022/06/05 02:42:44;;;;;;;12.47;11.17;;;15.80;99.90;;;;;;5055884;28;20201;-82
2022/06/05 02:45:41;;;;;;;13.67;10.93;;;15.80;99.90;;;;;;5054838;28;20623;-82
2022/06/05 02:48:07;;;;;;;12.67;11.23;;;15.90;99.90;;;;;;5054931;28;20251;-82
2022/06/05 02:50:39;;;;;;;13.50;10.93;;;15.80;99.90;;;;;;5071219;28;20174;-82
2022/06/05 02:53:07;;;;;;;10.83;9.73;;;15.80;99.90;;;;;;5055358;28;20244;-82
2022/06/05 02:55:34;;;;;;;13.43;10.33;;;16.00;99.90;;;;;;5053602;28;20180;-83
2022/06/05 02:58:00;;;;;;;13.97;10.50;;;;;;;;;;5054180;28;20268;-83
2022/06/05 03:00:28;;;;;;;11.70;10.40;;;15.80;99.90;;;;;;5055780;28;20251;-83
2022/06/05 03:05:40;;;;;;;13.77;10.30;;;15.80;99.90;;;;;;5064673;28;20677;-83
2022/06/05 03:08:08;;;;;;;12.37;10.20;;;15.70;99.90;;;;;;5063200;28;20209;-83
2022/06/05 03:10:33;;;;;;;11.47;10.27;;;15.70;99.90;;;;;;5062277;28;20177;-83
2022/06/05 03:13:01;;;;;;;10.50;9.40;;;15.70;99.90;;;;;;5064779;28;20177;-83
2022/06/05 03:15:27;;;;;;;10.60;9.37;;;;;;;;;;5062580;28;20174;-83
2022/06/05 03:17:53;;;;;;;12.87;10.07;;;15.70;99.90;;;;;;5079438;28;20201;-83
2022/06/05 03:20:19;;;;;;;13.17;10.00;;;;;;;;;;5062390;28;20653;-83
2022/06/05 03:22:45;;;;;;;13.70;9.77;;;15.60;99.90;;;;;;5064012;28;20227;-83
2022/06/05 03:25:16;;;;;;;14.80;11.53;;;15.60;99.90;;;;;;5063185;28;20561;-83
2022/06/05 03:27:41;;;;;;;12.50;10.47;;;15.60;99.90;;;;;;5071582;28;20206;-84
2022/06/05 03:30:08;;;;;;;12.03;10.03;;;15.60;99.90;;;;;;5061068;28;20182;-83
2022/06/05 03:32:33;;;;;;;12.90;9.93;;;15.60;99.90;;;;;;5060962;28;20178;-84
2022/06/05 03:34:59;;;;;;;10.23;8.70;;;;;;;;;;5061852;28;20307;-83
2022/06/05 03:37:25;;;;;;;10.90;9.73;;;15.60;99.90;;;;;;5078471;28;20217;-84
2022/06/05 03:39:51;;;;;;;11.97;9.90;;;15.60;99.90;;;;;;5062320;28;20181;-84
2022/06/05 03:42:17;;;;;;;10.97;9.87;;;15.60;99.90;;;;;;5063087;28;20514;-84
2022/06/05 03:44:43;;;;;;;10.43;8.60;;;15.60;99.90;;;;;;5061830;28;20178;-83
2022/06/05 03:47:10;;;;;;;10.67;9.53;;;15.50;99.90;;;;;;5061882;28;20565;-84
2022/06/05 03:49:36;;;;;;;13.33;10.20;;;;;;;;;;5061587;28;20209;-83
2022/06/05 03:52:04;;;;;;;12.73;9.90;;;15.50;99.90;;;;;;5061728;28;20250;-84
2022/06/05 03:54:30;;;;;;;12.57;10.03;;;;;;;;;;5061515;28;20181;-83
2022/06/05 03:56:55;;;;;;;13.27;10.03;;;15.50;99.90;;;;;;5060958;28;20181;-83
2022/06/05 03:59:21;;;;;;;14.07;8.93;;;;;;;;;;5061344;28;20292;-83
2022/06/05 04:01:48;;;;;;;11.17;9.40;;;15.50;99.90;;;;;;5078902;28;20205;-84
2022/06/05 04:04:14;;;;;;;12.53;9.30;;;;;;;;;;5062655;28;20199;-83
2022/06/05 04:06:40;;;;;;;15.03;8.57;;;15.60;99.90;;;;;;5063092;28;20182;-83
2022/06/05 04:09:08;;;;;;;14.63;9.27;;;15.30;99.90;;;;;;5062278;28;20683;-83
2022/06/05 04:11:35;;;;;;;10.97;7.53;;;15.50;99.90;;;;;;5062433;28;20173;-83
2022/06/05 04:14:02;;;;;;;9.93;8.07;;;15.50;99.90;;;;;;5062140;28;20178;-84
2022/06/05 04:16:29;;;;;;;10.37;7.83;;;15.50;99.90;;;;;;5062055;28;20255;-84
2022/06/05 04:18:57;;;;;;;9.43;7.80;;;15.60;99.90;;;;;;5061813;28;20201;-84
2022/06/05 04:21:26;;;;;;;11.97;7.50;;;15.60;99.90;;;;;;5061778;28;20184;-84
2022/06/05 04:23:53;;;;;;;10.40;7.70;;;15.70;99.90;;;;;;5063437;28;20216;-84
2022/06/05 04:26:22;;;;;;;10.47;8.70;;;15.60;99.90;;;;;;5075893;28;20185;-83
2022/06/05 04:28:48;;;;;;;8.93;7.37;;;15.60;99.90;;;;;;5076206;28;20209;-83
2022/06/05 04:31:22;;;;;;;9.40;6.87;;;15.70;99.90;;;;;;5068267;28;20204;-83
2022/06/05 04:33:49;;;;;;;11.30;7.97;;;15.70;99.90;;;;;;5062653;28;20173;-84
2022/06/05 04:36:15;;;;;;;9.67;7.53;;;15.70;99.90;;;;;;5062047;28;20248;-83
2022/06/05 04:38:41;;;;;;;8.50;7.10;;;;;;;;;;5060852;28;20291;-83
2022/06/05 04:41:08;;;;;;;7.47;6.67;;;15.70;99.90;;;;;;5062448;28;20184;-83
2022/06/05 04:43:35;;;;;;;7.40;6.47;;;15.70;99.90;;;;;;5060771;28;20185;-83
2022/06/05 04:46:01;;;;;;;9.37;6.37;;;;;;;;;;5060915;28;20181;-83
2022/06/05 04:48:27;;;;;;;9.10;6.83;;;15.70;99.90;;;;;;5061064;28;20236;-83
2022/06/05 04:50:52;;;;;;;8.33;6.60;;;15.70;99.90;;;;;;5060115;28;20619;-83
2022/06/05 04:53:19;;;;;;;9.97;7.03;;;15.80;99.90;;;;;;5059110;28;20174;-83
2022/06/05 04:55:45;;;;;;;6.80;6.03;;;;;;;;;;5075387;28;20323;-83
2022/06/05 04:58:11;;;;;;;9.90;6.97;;;;;;;;;;5059034;28;20204;-83
2022/06/05 05:00:38;;;;;;;10.00;6.90;;;15.80;99.90;;;;;;5058654;28;20213;-83
2022/06/05 05:03:04;;;;;;;10.20;6.50;;;15.90;99.90;;;;;;5074628;28;20193;-83
2022/06/05 05:05:30;;;;;;;8.97;6.50;;;15.90;99.90;;;;;;5057199;28;20249;-83
2022/06/05 05:07:56;;;;;;;8.53;6.30;;;16.10;99.90;;;;;;5056385;28;20241;-83
2022/06/05 05:10:22;;;;;;;7.37;6.40;;;16.10;99.90;;;;;;5056870;28;20220;-83
2022/06/05 05:12:48;;;;;;;6.70;6.00;;;16.10;99.90;;;;;;5057038;28;20175;-83
2022/06/05 05:15:14;;;;;;;11.17;6.13;;;;;;;;;;5056084;28;20180;-83
2022/06/05 05:17:40;;;;;;;6.90;5.43;;;16.50;99.90;;;;;;5071919;28;20201;-83
2022/06/05 05:20:07;;;;;;;7.53;6.60;;;;;;;;;;5054259;28;20188;-82
2022/06/05 05:22:37;;;;;;;6.63;5.90;;;;;;;;;;5069593;28;20189;-83
2022/06/05 05:25:05;;;;;;;7.07;5.53;;;16.90;99.90;;;;;;5069960;28;20185;-83
2022/06/05 05:27:31;;;;;;;8.30;5.50;;;16.80;99.90;;;;;;5060673;28;20276;-83
2022/06/05 05:29:57;;;;;;;6.47;5.43;;;17.20;99.90;;;;;;5059119;28;20169;-82
2022/06/05 05:32:23;;;;;;;6.13;5.10;;;16.80;99.90;;;;;;5061242;28;20185;-83
2022/06/05 05:34:49;;;;;;;6.70;5.53;;;;;;;;;;5059976;28;20521;-83
2022/06/05 05:37:14;;;;;;;6.23;5.23;;;16.70;99.90;;;;;;5074965;28;20202;-82
2022/06/05 05:42:24;;;;;;;5.90;5.17;;;17.20;99.90;;;;;;5060374;28;20183;-83
2022/06/05 05:44:53;;;;;;;6.37;5.13;;;17.10;99.90;;;;;;5060443;28;20210;-83
2022/06/05 05:47:22;;;;;;;9.17;5.40;;;17.20;99.90;;;;;;5076108;28;20672;-82
2022/06/05 05:49:53;;;;;;;6.40;4.90;;;17.10;99.90;;;;;;5058541;28;20179;-82
2022/06/05 05:52:18;;;;;;;5.00;4.50;;;17.40;99.90;;;;;;5059596;28;20179;-83
2022/06/05 05:54:44;;;;;;;5.83;4.53;;;;;;;;;;5058354;28;20184;-83
2022/06/05 05:57:10;;;;;;;8.90;4.80;;;17.70;99.90;;;;;;5076356;28;20200;-83
2022/06/05 05:59:37;;;;;;;8.30;4.63;;;17.70;99.90;;;;;;5058757;28;20623;-83
2022/06/05 06:02:06;;;;;;;5.67;4.23;;;17.90;99.90;;;;;;5059865;28;20187;-83
2022/06/05 06:04:31;;;;;;;5.27;4.17;;;17.70;99.90;;;;;;5061953;28;20180;-83
2022/06/05 06:06:57;;;;;;;7.57;5.27;;;;;;;;;;5063235;28;20820;-83
2022/06/05 06:09:24;;;;;;;6.07;4.17;;;17.80;99.90;;;;;;5062428;28;20207;-83
2022/06/05 06:11:49;;;;;;;9.40;4.13;;;17.90;99.90;;;;;;5062254;28;20218;-83
2022/06/05 06:14:15;;;;;;;5.90;4.07;;;;;;;;;;5062432;28;20182;-83
2022/06/05 06:16:41;;;;;;;10.40;3.80;;;18.00;99.90;;;;;;5065239;28;20206;-83
2022/06/05 06:19:07;;;;;;;5.53;3.80;;;;;;;;;;5074100;28;20184;-83
2022/06/05 06:21:33;;;;;;;7.03;4.13;;;18.10;99.90;;;;;;5085637;28;20191;-83
2022/06/05 06:23:59;;;;;;;8.70;4.03;;;18.40;99.90;;;;;;5059670;28;20180;-84
2022/06/05 06:26:24;;;;;;;7.17;3.93;;;18.50;99.90;;;;;;5059090;28;20183;-83
2022/06/05 06:28:50;;;;;;;9.10;3.83;;;;;;;;;;5058695;28;20768;-83
2022/06/05 06:31:17;;;;;;;9.50;4.70;;;19.00;99.90;;;;;;5074313;28;20271;-83
2022/06/05 06:33:45;;;;;;;7.63;4.23;;;19.10;99.90;;;;;;5058326;28;20177;-84
2022/06/05 06:36:12;;;;;;;9.47;4.90;;;19.00;99.90;;;;;;5062172;28;20165;-83
2022/06/05 06:38:40;;;;;;;8.80;4.80;;;19.00;99.90;;;;;;5062750;28;20193;-82
2022/06/05 06:41:23;;;;;;;6.30;4.60;;;19.00;99.90;;;;;;5061880;28;20184;-83
2022/06/05 06:43:50;;;;;;;7.40;4.97;;;19.10;99.90;;;;;;5063068;28;20169;-83
2022/06/05 06:46:18;;;;;;;7.77;4.77;;;19.10;99.90;;;;;;5060796;28;20181;-83
2022/06/05 06:48:44;;;;;;;5.90;4.43;;;19.00;99.90;;;;;;5059814;28;20205;-82
2022/06/05 06:51:10;;;;;;;8.07;4.50;;;18.90;99.90;;;;;;5060022;28;20631;-83
2022/06/05 06:53:37;;;;;;;5.33;4.70;;;18.90;99.90;;;;;;5060390;28;20177;-83
2022/06/05 06:56:14;;;;;;;6.40;4.77;;;18.80;99.90;;;;;;5061342;28;20165;-83
2022/06/05 06:58:41;;;;;;;5.37;4.27;;;18.70;99.90;;;;;;5059405;28;20201;-82
2022/06/05 07:01:08;;;;;;;6.87;5.10;;;18.70;99.90;;;;;;5060096;28;20186;-82
2022/06/05 07:03:34;;;;;;;5.37;4.57;;;18.70;99.90;;;;;;5058872;28;20177;-83
2022/06/05 07:06:06;;;;;;;8.17;4.93;;;18.50;99.90;;;;;;5058902;28;20181;-83
2022/06/05 07:08:33;;;;;;;6.73;4.77;;;18.50;99.90;;;;;;5059095;28;20343;-82
2022/06/05 07:10:59;;;;;;;6.60;4.90;;;18.50;99.90;;;;;;5059179;28;20170;-81
2022/06/05 07:13:25;;;;;;;5.97;4.60;;;;;;;;;;5060600;28;20656;-83
2022/06/05 07:15:51;;;;;;;5.27;4.40;;;18.70;99.90;;;;;;5075745;28;20173;-82
2022/06/05 07:18:18;;;;;;;8.40;5.20;;;19.10;99.90;;;;;;5061413;28;20557;-82
2022/06/05 07:20:44;;;;;;;5.20;4.47;;;19.30;99.90;;;;;;5060941;28;20518;-83
2022/06/05 07:23:10;;;;;;;8.70;4.57;;;19.50;99.90;;;;;;5061984;28;20194;-83
2022/06/05 07:25:37;;;;;;;5.23;4.73;;;19.60;99.90;;;;;;5060428;28;20649;-84
2022/06/05 07:28:04;;;;;;;4.60;4.03;;;19.50;99.90;;;;;;5059360;28;20533;-84
2022/06/05 07:30:31;;;;;;;5.60;4.70;;;19.50;99.90;;;;;;5061339;28;20275;-83
2022/06/05 07:32:57;;;;;;;6.43;5.17;;;19.40;99.90;;;;;;5060760;28;20529;-84
2022/06/05 07:35:23;;;;;;;5.70;4.77;;;19.20;99.90;;;;;;5061310;28;20206;-84
2022/06/05 07:37:49;;;;;;;5.73;4.17;;;18.90;99.90;;;;;;5060293;28;20198;-85
2022/06/05 07:40:16;;;;;;;5.93;4.67;;;18.90;99.90;;;;;;5062164;28;20187;-83
2022/06/05 07:42:43;;;;;;;4.90;4.20;;;18.80;99.90;;;;;;5062749;28;20178;-83
2022/06/05 07:45:13;;;;;;;6.00;3.87;;;18.80;99.90;;;;;;5062813;28;20172;-84
2022/06/05 07:47:43;;;;;;;5.60;3.60;;;18.70;99.90;;;;;;5062148;28;20205;-83
2022/06/05 07:50:10;;;;;;;5.07;3.80;;;18.70;99.90;;;;;;5078335;28;20173;-83
2022/06/05 07:55:21;;;;;;;4.50;3.40;;;18.80;99.90;;;;;;5064394;28;20171;-83
2022/06/05 07:57:47;;;;;;;3.37;2.87;;;19.10;99.90;;;;;;5063235;28;20195;-83
2022/06/05 08:00:14;;;;;;;5.33;2.57;;;19.20;99.90;;;;;;5063079;28;20285;-83
2022/06/05 08:02:40;;;;;;;3.17;2.87;;;19.30;99.90;;;;;;5066876;28;20199;-83
2022/06/05 08:05:07;;;;;;;4.43;2.60;;;19.50;99.90;;;;;;5066210;28;20180;-83
2022/06/05 08:07:33;;;;;;;5.30;3.20;;;19.70;99.90;;;;;;5060525;28;20212;-83
2022/06/05 08:10:00;;;;;;;3.40;2.30;;;19.80;99.90;;;;;;5058336;28;20629;-83
2022/06/05 08:12:33;;;;;;;2.53;2.33;;;19.90;99.90;;;;;;5060467;28;20184;-83
2022/06/05 08:15:04;;;;;;;8.07;2.87;;;19.90;99.90;;;;;;5061150;28;20168;-82
2022/06/05 08:17:33;;;;;;;5.03;2.33;;;20.20;99.90;;;;;;5062378;28;20324;-84
2022/06/05 08:19:59;;;;;;;3.10;1.97;;;20.30;99.90;;;;;;5061527;28;20287;-85
2022/06/05 08:22:27;;;;;;;3.50;1.73;;;20.30;99.90;;;;;;5061041;28;20185;-84
2022/06/05 08:24:53;;;;;;;2.67;1.80;;;20.40;99.90;;;;;;5059375;28;20216;-84
2022/06/05 08:27:23;;;;;;;3.20;1.90;;;20.60;99.90;;;;;;5060140;28;20292;-84
2022/06/05 08:29:49;;;;;;;3.00;1.50;;;20.70;99.90;;;;;;5058648;28;20202;-85
2022/06/05 08:32:15;;;;;;;3.10;2.40;;;20.80;99.90;;;;;;5059368;28;20706;-84
2022/06/05 08:34:41;;;;;;;3.23;1.70;;;20.90;99.90;;;;;;5058515;28;20213;-83
2022/06/05 08:43:04;;;;;;;1.73;1.37;;;21.50;99.90;;;;;;5061861;28;20177;-83
2022/06/05 08:45:49;;;;;;;3.27;1.67;;;21.70;99.90;;;;;;5060975;28;20189;-83
2022/06/05 08:48:27;;;;;;;1.63;1.43;;;21.70;99.90;;;;;;5060362;28;20205;-83
2022/06/05 08:50:58;;;;;;;1.70;1.23;;;21.70;99.90;;;;;;5060506;28;20192;-80
2022/06/05 08:53:56;;;;;;;3.30;1.33;;;21.60;99.90;;;;;;5060220;28;20178;-80
2022/06/05 08:56:43;;;;;;;7.33;1.90;;;21.70;99.90;;;;;;5058986;28;20158;-80
2022/06/05 08:59:15;;;;;;;1.30;1.20;;;21.80;99.90;;;;;;5060189;28;20186;-80
2022/06/05 09:01:49;;;;;;;2.10;1.90;;;21.80;99.90;;;;;;5075186;28;20283;-80
2022/06/05 09:04:21;;;;;;;3.40;1.10;;;21.90;99.90;;;;;;5059651;28;20646;-80
2022/06/05 09:06:52;;;;;;;4.10;1.63;;;21.90;99.90;;;;;;5059730;28;20188;-80
2022/06/05 09:09:44;;;;;;;2.27;1.07;;;21.90;99.90;;;;;;5057510;28;20577;-80
2022/06/05 09:12:14;;;;;;;3.37;1.30;;;22.00;99.90;;;;;;5039851;28;20189;-80
2022/06/05 09:15:02;;;;;;;2.63;1.30;;;21.80;99.90;;;;;;5075056;28;20181;-80
2022/06/05 09:17:28;;;;;;;1.50;1.10;;;21.80;99.90;;;;;;5058181;28;20193;-81
2022/06/05 09:19:57;;;;;;;2.30;1.60;;;21.60;99.90;;;;;;5059680;28;20204;-80
2022/06/05 09:22:35;;;;;;;3.30;1.70;;;21.80;99.90;;;;;;5058157;28;20258;-79
2022/06/05 09:25:40;;;;;;;5.23;1.50;;;22.00;99.90;;;;;;5056677;28;20253;-80
2022/06/05 09:28:36;;;;;;;3.73;1.43;;;22.30;99.90;;;;;;5055104;28;20223;-79
2022/06/05 09:31:50;;;;;;;2.13;1.30;;;22.50;99.90;;;;;;5055812;28;20241;-79
2022/06/05 09:34:27;;;;;;;1.33;1.20;;;22.50;99.90;;;;;;5028642;28;20188;-79
2022/06/05 09:37:04;;;;;;;3.80;1.20;;;22.90;99.90;;;;;;5056488;28;20231;-79
2022/06/05 09:39:39;;;;;;;1.70;1.10;;;22.90;99.90;;;;;;5074988;28;20174;-80
2022/06/05 09:42:24;;;;;;;1.73;1.20;;;22.80;99.90;;;;;;5060379;28;20190;-81
2022/06/05 09:45:15;;;;;;;1.77;1.20;;;23.00;99.90;;;;;;5062843;28;20175;-80
2022/06/05 09:48:19;;;;;;;3.20;1.30;;;22.90;99.90;;;;;;5077183;28;20199;-79
2022/06/05 09:50:45;;;;;;;1.20;1.00;;;23.20;99.90;;;;;;5075615;28;20272;-81
2022/06/05 09:53:20;;;;;;;2.23;1.10;;;23.70;99.90;;;;;;5063333;28;20176;-80
2022/06/05 09:56:12;;;;;;;3.13;1.47;;;23.90;99.90;;;;;;5061868;28;20619;-80
2022/06/05 09:59:03;;;;;;;1.30;1.07;;;24.00;99.90;;;;;;5058668;28;20203;-80
2022/06/05 10:01:47;;;;;;;2.13;1.10;;;24.20;99.90;;;;;;5057167;28;20186;-79
2022/06/05 10:04:13;;;;;;;4.07;1.40;;;24.50;99.90;;;;;;5057669;28;20190;-82
2022/06/05 10:06:47;;;;;;;1.70;1.10;;;24.60;99.90;;;;;;5060852;28;20189;-81
2022/06/05 10:09:23;;;;;;;1.80;1.17;;;24.60;99.90;;;;;;5058443;28;20196;-81
2022/06/05 10:11:54;;;;;;;3.83;1.47;;;24.60;99.90;;;;;;5058845;28;20189;-80
2022/06/05 10:14:38;;;;;;;2.10;1.10;;;24.40;99.90;;;;;;5083832;28;20189;-80
2022/06/05 10:17:07;;;;;;;1.17;1.00;;;24.30;99.90;;;;;;5073225;28;20223;-81
2022/06/05 10:19:52;;;;;;;2.00;1.10;;;24.10;99.90;;;;;;5072662;28;20186;-80
2022/06/05 10:22:26;;;;;;;2.63;1.40;;;24.20;99.90;;;;;;5057321;28;20233;-81
2022/06/05 10:25:22;;;;;;;2.70;1.03;;;24.60;99.90;;;;;;5058959;28;20632;-80
2022/06/05 10:27:50;;;;;;;2.93;1.40;;;24.90;99.90;;;;;;5056852;28;20777;-82
2022/06/05 10:30:19;;;;;;;3.83;1.00;;;25.20;99.90;;;;;;5055487;28;20170;-83
2022/06/05 10:33:10;;;;;;;3.33;1.50;;;25.50;99.90;;;;;;5057085;28;20166;-82
2022/06/05 10:35:46;;;;;;;2.27;1.10;;;25.90;99.90;;;;;;5057592;28;20162;-82
2022/06/05 10:38:34;;;;;;;3.30;1.30;;;26.30;99.90;;;;;;5056109;28;20193;-84
2022/06/05 10:41:31;;;;;;;1.30;1.10;;;26.60;99.90;;;;;;5058902;28;20174;-84
2022/06/05 10:44:19;;;;;;;2.60;1.40;;;26.60;99.90;;;;;;5038725;28;20186;-84
2022/06/05 10:47:13;;;;;;;1.93;1.20;;;26.50;99.90;;;;;;5056999;28;20258;-86
2022/06/05 10:49:48;;;;;;;1.80;1.17;;;26.80;99.90;;;;;;5060273;28;20221;-84
2022/06/05 10:52:13;;;;;;;2.33;1.00;;;27.00;99.90;;;;;;5077452;28;20545;-84
2022/06/05 10:55:14;;;;;;;1.57;0.93;;;27.40;99.90;;;;;;5073776;28;20178;-84
2022/06/05 10:57:48;;;;;;;3.20;1.03;;;27.70;99.90;;;;;;5059702;28;20191;-84
2022/06/05 11:00:28;;;;;;;1.50;1.10;;;28.00;99.90;;;;;;5057896;28;20553;-81
2022/06/05 11:03:13;;;;;;;2.10;1.20;;;27.70;99.90;;;;;;5058335;28;20187;-82
2022/06/05 11:05:54;;;;;;;2.33;1.07;;;27.70;99.90;;;;;;5057198;28;20192;-81
2022/06/05 11:08:38;;;;;;;1.33;1.00;;;27.60;99.90;;;;;;5073478;28;20231;-81
2022/06/05 11:14:03;;;;;;;2.53;1.13;;;28.10;99.90;;;;;;5059890;28;20167;-83
2022/06/05 11:16:41;;;;;;;1.93;0.97;;;28.50;99.90;;;;;;5059924;28;20184;-81
2022/06/05 11:19:33;;;;;;;2.67;1.07;;;28.40;99.90;;;;;;5065245;28;20241;-80
2022/06/05 11:22:03;;;;;;;3.17;1.40;;;28.20;99.90;;;;;;5072909;28;20193;-80
2022/06/05 11:24:33;;;;;;;2.23;1.40;;;28.70;99.90;;;;;;5065503;28;20150;-79
2022/06/05 11:27:10;;;;;;;2.13;1.13;;;29.00;99.90;;;;;;5063671;28;20177;-83
2022/06/05 11:30:20;;;;;;;1.53;1.20;;;28.90;99.90;;;;;;5071333;28;20273;-80
2022/06/05 11:32:55;;;;;;;2.03;1.07;;;28.50;99.90;;;;;;5067804;28;20168;-81
2022/06/05 11:35:50;;;;;;;2.33;1.30;;;28.60;99.90;;;;;;5059665;28;20531;-80
2022/06/05 11:38:26;;;;;;;4.03;1.60;;;28.80;99.90;;;;;;5057803;28;20210;-81
2022/06/05 11:41:17;;;;;;;1.50;1.10;;;28.90;99.90;;;;;;5061164;28;20164;-79
2022/06/05 11:43:43;;;;;;;4.23;1.07;;;29.00;99.90;;;;;;5061089;28;20178;-80
2022/06/05 11:46:11;;;;;;;1.70;1.10;;;29.40;99.90;;;;;;5060781;28;20189;-80
2022/06/05 11:48:52;;;;;;;2.00;1.10;;;29.80;99.90;;;;;;5077447;28;20210;-80
2022/06/05 11:51:23;;;;;;;1.60;1.30;;;30.00;99.90;;;;;;5060674;28;20209;-80
2022/06/05 11:54:05;;;;;;;2.40;1.37;;;30.40;99.90;;;;;;5075315;28;20666;-80
2022/06/05 11:57:12;;;;;;;1.90;1.20;;;30.80;99.90;;;;;;5058286;28;20198;-81
2022/06/05 11:59:41;;;;;;;3.73;1.30;;;30.80;99.90;;;;;;5061407;28;20216;-82
2022/06/05 12:02:26;;;;;;;2.10;1.23;;;30.70;99.90;;;;;;5061676;28;20190;-81
2022/06/05 12:05:30;;;;;;;1.77;1.20;;;30.70;99.90;;;;;;5076932;28;20637;-82
2022/06/05 12:08:25;;;;;;;1.57;1.00;;;30.40;99.90;;;;;;5081162;28;20218;-83
2022/06/05 12:10:59;;;;;;;4.37;1.30;;;29.90;99.90;;;;;;5057454;28;20190;-81
2022/06/05 12:13:51;;;;;;;2.37;1.27;;;29.80;99.90;;;;;;5062214;28;20201;-82
2022/06/05 12:16:43;;;;;;;3.63;1.20;;;30.30;99.90;;;;;;5062534;28;20197;-82
2022/06/05 12:19:25;;;;;;;2.30;1.40;;;29.90;99.90;;;;;;5063868;28;20176;-81
2022/06/05 12:22:05;;;;;;;3.30;1.20;;;29.50;99.90;;;;;;5063766;28;20224;-82
2022/06/05 12:24:43;;;;;;;2.70;1.57;;;29.70;99.90;;;;;;5062840;28;20182;-82
2022/06/05 12:27:17;;;;;;;2.50;1.23;;;29.40;99.90;;;;;;5078267;28;20273;-83
2022/06/05 12:29:46;;;;;;;4.20;1.43;;;29.80;99.90;;;;;;5061358;28;20237;-84
2022/06/05 12:32:30;;;;;;;3.57;1.77;;;30.10;99.90;;;;;;5065980;28;20246;-81
2022/06/05 12:35:01;;;;;;;5.00;1.77;;;30.50;99.90;;;;;;5060309;28;20171;-79
2022/06/05 12:37:40;;;;;;;3.07;2.27;;;30.70;99.90;;;;;;5061001;28;20253;-81
2022/06/05 12:40:19;;;;;;;2.90;1.37;;;30.90;99.90;;;;;;5062191;28;20160;-81
2022/06/05 12:43:06;;;;;;;2.57;1.73;;;31.40;99.90;;;;;;5063183;28;20165;-81
2022/06/05 12:45:33;;;;;;;2.87;1.40;;;31.60;99.90;;;;;;5059431;28;20177;-81
2022/06/05 12:48:21;;;;;;;3.90;1.60;;;31.40;99.90;;;;;;5058993;28;20208;-80
2022/06/05 12:51:02;;;;;;;2.37;1.47;;;30.60;99.90;;;;;;5059678;28;20205;-80
2022/06/05 12:53:43;;;;;;;3.77;1.47;;;29.80;99.90;;;;;;5058425;28;20171;-80
2022/06/05 12:56:30;;;;;;;1.60;1.30;;;29.70;99.90;;;;;;5060006;28;20188;-80
2022/06/05 12:59:03;;;;;;;1.50;1.20;;;29.90;99.90;;;;;;5082461;28;20224;-80
2022/06/05 13:01:58;;;;;;;1.80;1.30;;;29.30;99.90;;;;;;5067754;28;20274;-82
2022/06/05 13:04:57;;;;;;;2.03;1.17;;;28.20;99.90;;;;;;5061922;28;20191;-81
2022/06/05 13:08:05;;;;;;;4.73;2.13;;;27.60;99.90;;;;;;5060447;28;20202;-80
2022/06/05 13:10:39;;;;;;;2.63;2.30;;;26.70;99.90;;;;;;5002822;28;20321;-80
2022/06/05 13:13:21;;;;;;;2.60;2.30;;;25.90;99.90;;;;;;5017990;28;20204;-81
2022/06/05 13:15:56;;;;;;;3.23;2.10;;;25.30;99.90;;;;;;5038997;28;20197;-82
2022/06/05 13:18:42;;;;;;;2.80;1.90;;;24.90;99.90;;;;;;5062003;28;20280;-81
2022/06/05 13:21:14;;;;;;;2.20;2.00;;;24.60;99.90;;;;;;5060022;28;20185;-80
2022/06/05 13:23:45;;;;;;;4.93;1.80;;;24.40;99.90;;;;;;5075422;28;20180;-83
2022/06/05 13:26:34;;;;;;;2.57;1.67;;;24.10;99.90;;;;;;5060439;28;20258;-81
2022/06/05 13:29:06;;;;;;;3.53;1.53;;;23.90;99.90;;;;;;5057668;28;20566;-82
2022/06/05 13:31:57;;;;;;;1.53;1.40;;;23.60;99.90;;;;;;5074938;28;20181;-81
2022/06/05 13:34:43;;;;;;;3.27;1.63;;;23.10;99.90;;;;;;5075281;28;20185;-81
2022/06/05 13:37:34;;;;;;;2.63;1.60;;;22.70;99.90;;;;;;5060756;28;20284;-81
2022/06/05 13:40:21;;;;;;;2.13;1.40;;;22.40;99.90;;;;;;5060617;28;20174;-81
2022/06/05 13:42:50;;;;;;;2.60;1.67;;;21.90;99.90;;;;;;5061272;28;20179;-80